createdAt,value
2023-03-30T00:01:44.681Z,98841.09
2023-03-30T00:04:18.896Z,98832.81
2023-03-30T00:06:48.695Z,98822.44
2023-03-30T00:09:18.466Z,98812.06
2023-03-30T00:11:48.299Z,98812.78
2023-03-30T00:14:19.897Z,98806.44
2023-03-30T00:16:49.616Z,98818.44
2023-03-30T00:19:21.912Z,98822.06
2023-03-30T00:21:52.370Z,98802.47
2023-03-30T00:24:22.056Z,98809.03
2023-03-30T00:26:51.747Z,98798.75
2023-03-30T00:29:21.446Z,98791.75
2023-03-30T00:31:52.182Z,98789.88
2023-03-30T00:34:27.653Z,98788.91
2023-03-30T00:36:57.726Z,98794.09
2023-03-30T00:39:27.529Z,98797.25
2023-03-30T00:41:57.214Z,98794.75
2023-03-30T00:44:57.099Z,98784.50
2023-03-30T00:47:28.189Z,98779.13
2023-03-30T00:50:01.315Z,98790.72
2023-03-30T00:52:31.277Z,98783.09
2023-03-30T00:55:02.046Z,98784.22
2023-03-30T00:57:32.505Z,98771.28
2023-03-30T01:00:02.352Z,98768.59
2023-03-30T01:02:34.641Z,98764.16
2023-03-30T01:05:08.829Z,98756.94
2023-03-30T01:07:40.362Z,98754.06
2023-03-30T01:10:13.069Z,98743.88
2023-03-30T01:12:43.750Z,98739.16
2023-03-30T01:15:16.329Z,98735.06
2023-03-30T01:17:59.910Z,98729.44
2023-03-30T01:20:54.244Z,98718.00
2023-03-30T01:24:04.126Z,98726.69
2023-03-30T01:26:53.566Z,98724.72
2023-03-30T01:29:52.882Z,98712.56
2023-03-30T01:32:43.375Z,98708.38
2023-03-30T01:35:29.731Z,98701.50
2023-03-30T01:38:20.000Z,98701.19
2023-03-30T01:40:58.951Z,98705.22
2023-03-30T01:43:37.945Z,98689.09
2023-03-30T01:46:12.265Z,98684.16
2023-03-30T01:48:47.432Z,98685.59
2023-03-30T01:51:23.103Z,98685.88
2023-03-30T01:53:59.163Z,98685.16
2023-03-30T01:56:36.591Z,98682.13
2023-03-30T01:59:12.333Z,98684.81
2023-03-30T02:01:50.420Z,98670.75
2023-03-30T02:04:24.684Z,98672.09
2023-03-30T02:06:58.840Z,98681.78
2023-03-30T02:09:30.743Z,98679.13
2023-03-30T02:12:05.052Z,98670.59
2023-03-30T02:14:40.663Z,98665.25
2023-03-30T02:17:17.318Z,98648.53
2023-03-30T02:19:48.981Z,98641.06
2023-03-30T02:22:21.940Z,98646.88
2023-03-30T02:24:56.140Z,98647.47
2023-03-30T02:27:30.176Z,98655.09
2023-03-30T02:30:00.268Z,98655.44
2023-03-30T02:32:34.988Z,98638.06
2023-03-30T02:35:29.436Z,98641.91
2023-03-30T02:38:28.379Z,98638.47
2023-03-30T02:41:07.305Z,98641.34
2023-03-30T02:43:47.465Z,98643.91
2023-03-30T02:46:34.097Z,98648.44
2023-03-30T02:49:15.973Z,98646.66
2023-03-30T02:51:53.831Z,98643.25
2023-03-30T02:54:40.232Z,98632.84
2023-03-30T02:57:36.952Z,98627.97
2023-03-30T03:00:33.698Z,98628.13
2023-03-30T03:03:10.240Z,98629.03
2023-03-30T03:05:40.187Z,98622.16
2023-03-30T03:08:17.298Z,98615.31
2023-03-30T03:10:48.767Z,98623.31
2023-03-30T03:13:22.198Z,98624.56
2023-03-30T03:15:56.408Z,98621.84
2023-03-30T03:18:27.649Z,98617.44
2023-03-30T03:20:57.896Z,98618.00
2023-03-30T03:23:27.817Z,98603.03
2023-03-30T03:26:00.452Z,98599.25
2023-03-30T03:28:31.898Z,98587.25
2023-03-30T03:31:10.700Z,98564.59
2023-03-30T03:33:40.602Z,98570.38
2023-03-30T03:36:17.512Z,98569.25
2023-03-30T03:38:52.397Z,98560.84
2023-03-30T03:41:22.304Z,98570.28
2023-03-30T03:43:52.078Z,98564.63
2023-03-30T03:46:25.043Z,98551.00
2023-03-30T03:48:55.029Z,98545.72
2023-03-30T03:51:24.839Z,98550.75
2023-03-30T03:53:54.580Z,98539.72
2023-03-30T03:56:25.403Z,98537.97
2023-03-30T03:58:55.595Z,98542.94
2023-03-30T04:01:29.978Z,98552.41
2023-03-30T04:03:59.714Z,98546.09
2023-03-30T04:06:29.929Z,98546.19
2023-03-30T04:09:01.270Z,98551.41
2023-03-30T04:11:53.710Z,98548.63
2023-03-30T04:14:34.959Z,98538.31
2023-03-30T04:17:26.387Z,98523.41
2023-03-30T04:20:12.469Z,98526.28
2023-03-30T04:23:22.176Z,98523.19
2023-03-30T04:26:13.819Z,98526.41
2023-03-30T04:29:05.126Z,98520.19
2023-03-30T04:32:03.872Z,98505.38
2023-03-30T04:35:05.855Z,98518.09
2023-03-30T04:37:54.283Z,98518.59
2023-03-30T04:40:44.296Z,98511.50
2023-03-30T04:43:32.298Z,98508.22
2023-03-30T04:46:24.683Z,98512.25
2023-03-30T04:49:10.985Z,98488.41
2023-03-30T04:52:08.879Z,98498.44
2023-03-30T04:55:10.127Z,98485.75
2023-03-30T04:58:04.609Z,98472.59
2023-03-30T05:00:44.471Z,98468.59
2023-03-30T05:03:40.608Z,98466.63
2023-03-30T05:06:45.869Z,98466.22
2023-03-30T05:09:30.102Z,98473.84
2023-03-30T05:12:38.329Z,98472.47
2023-03-30T05:15:34.691Z,98481.97
2023-03-30T05:18:22.883Z,98471.44
2023-03-30T05:21:11.272Z,98465.53
2023-03-30T05:23:43.057Z,98467.22
2023-03-30T05:26:32.074Z,98466.84
2023-03-30T05:29:07.946Z,98475.63
2023-03-30T05:31:56.433Z,98475.22
2023-03-30T05:34:45.369Z,98465.41
2023-03-30T05:37:35.526Z,98460.66
2023-03-30T05:40:23.763Z,98460.94
2023-03-30T05:43:11.320Z,98447.06
2023-03-30T05:45:55.093Z,98454.09
2023-03-30T05:48:51.452Z,98449.53
2023-03-30T05:51:28.144Z,98442.59
2023-03-30T05:54:23.474Z,98434.53
2023-03-30T05:57:02.389Z,98442.66
2023-03-30T05:59:43.122Z,98439.00
2023-03-30T06:02:24.803Z,98439.00
2023-03-30T06:05:01.765Z,98444.44
2023-03-30T06:07:32.124Z,98430.06
2023-03-30T06:10:02.109Z,98444.63
2023-03-30T06:12:33.649Z,98440.16
2023-03-30T06:15:09.267Z,98445.03
2023-03-30T06:17:52.958Z,98441.53
2023-03-30T06:20:24.734Z,98435.09
2023-03-30T06:22:54.894Z,98432.94
2023-03-30T06:25:27.074Z,98439.59
2023-03-30T06:27:58.058Z,98433.66
2023-03-30T06:30:31.332Z,98439.00
2023-03-30T06:33:05.384Z,98430.13
2023-03-30T06:35:49.335Z,98436.38
2023-03-30T06:38:22.484Z,98434.47
2023-03-30T06:40:54.234Z,98430.03
2023-03-30T06:43:28.116Z,98424.22
2023-03-30T06:46:07.367Z,98422.06
2023-03-30T06:48:37.294Z,98426.88
2023-03-30T06:51:27.679Z,98431.22
2023-03-30T06:53:59.900Z,98437.00
2023-03-30T06:56:29.989Z,98429.72
2023-03-30T06:59:12.560Z,98424.88
2023-03-30T07:02:04.904Z,98427.13
2023-03-30T07:05:11.992Z,98435.91
2023-03-30T07:07:59.824Z,98450.19
2023-03-30T07:10:30.498Z,98436.09
2023-03-30T07:13:02.805Z,98438.53
2023-03-30T07:15:34.037Z,98433.50
2023-03-30T07:18:07.448Z,98440.28
2023-03-30T07:20:37.659Z,98453.16
2023-03-30T07:23:12.652Z,98450.88
2023-03-30T07:25:43.040Z,98452.91
2023-03-30T07:28:17.107Z,98455.09
2023-03-30T07:30:48.464Z,98449.09
2023-03-30T07:33:22.175Z,98455.75
2023-03-30T07:35:53.186Z,98441.09
2023-03-30T07:38:27.278Z,98441.28
2023-03-30T07:40:58.188Z,98454.09
2023-03-30T07:43:28.630Z,98466.75
2023-03-30T07:45:59.839Z,98462.53
2023-03-30T07:48:38.470Z,98461.25
2023-03-30T07:51:09.789Z,98460.28
2023-03-30T07:53:46.044Z,98456.88
2023-03-30T07:56:23.575Z,98445.22
2023-03-30T07:58:57.140Z,98444.22
2023-03-30T08:01:34.174Z,98453.94
2023-03-30T08:04:28.100Z,98452.28
2023-03-30T08:06:57.918Z,98459.69
2023-03-30T08:09:28.550Z,98457.91
2023-03-30T08:11:58.269Z,98450.19
2023-03-30T08:14:28.840Z,98454.09
2023-03-30T08:16:59.189Z,98474.84
2023-03-30T08:19:31.544Z,98471.25
2023-03-30T08:22:01.918Z,98479.78
2023-03-30T08:24:32.152Z,98465.38
2023-03-30T08:27:01.941Z,98473.13
2023-03-30T08:29:31.828Z,98481.22
2023-03-30T08:32:01.843Z,98480.84
2023-03-30T08:34:36.079Z,98478.84
2023-03-30T08:37:07.843Z,98474.78
2023-03-30T08:39:37.828Z,98472.50
2023-03-30T08:42:26.166Z,98467.47
2023-03-30T08:44:58.236Z,98457.78
2023-03-30T08:47:35.272Z,98459.78
2023-03-30T08:50:11.574Z,98455.38
2023-03-30T08:52:42.268Z,98460.22
2023-03-30T08:55:24.493Z,98464.88
2023-03-30T08:57:58.844Z,98454.25
2023-03-30T09:00:39.846Z,98464.03
2023-03-30T09:03:18.639Z,98468.88
2023-03-30T09:05:55.622Z,98459.66
2023-03-30T09:08:29.300Z,98474.41
2023-03-30T09:11:02.460Z,98474.59
2023-03-30T09:13:37.995Z,98466.81
2023-03-30T09:16:19.681Z,98457.91
2023-03-30T09:18:55.428Z,98447.03
2023-03-30T09:21:32.313Z,98455.13
2023-03-30T09:24:04.738Z,98446.50
2023-03-30T09:26:44.360Z,98452.56
2023-03-30T09:29:20.720Z,98452.09
2023-03-30T09:31:54.597Z,98452.66
2023-03-30T09:34:30.072Z,98452.47
2023-03-30T09:37:08.446Z,98443.22
2023-03-30T09:39:39.363Z,98439.91
2023-03-30T09:42:22.049Z,98440.00
2023-03-30T09:44:55.490Z,98444.34
2023-03-30T09:47:28.630Z,98441.97
2023-03-30T09:50:00.522Z,98440.94
2023-03-30T09:52:39.105Z,98458.31
2023-03-30T09:55:27.712Z,98447.88
2023-03-30T09:58:12.322Z,98435.94
2023-03-30T10:00:42.358Z,98442.34
2023-03-30T10:03:22.975Z,98433.47
2023-03-30T10:06:05.715Z,98418.38
2023-03-30T10:08:43.336Z,98421.91
2023-03-30T10:11:15.864Z,98430.56
2023-03-30T10:13:46.710Z,98419.63
2023-03-30T10:16:27.994Z,98428.63
2023-03-30T10:19:02.625Z,98420.66
2023-03-30T10:21:33.996Z,98423.41
2023-03-30T10:24:10.392Z,98421.78
2023-03-30T10:26:44.978Z,98401.34
2023-03-30T10:29:16.482Z,98390.28
2023-03-30T10:31:48.520Z,98386.31
2023-03-30T10:34:21.121Z,98387.94
2023-03-30T10:36:56.162Z,98390.44
2023-03-30T10:39:33.448Z,98389.31
2023-03-30T10:42:05.129Z,98397.63
2023-03-30T10:44:41.034Z,98389.44
2023-03-30T10:47:20.085Z,98396.34
2023-03-30T10:49:58.927Z,98387.19
2023-03-30T10:52:43.099Z,98384.16
2023-03-30T10:55:25.824Z,98385.97
2023-03-30T10:58:03.550Z,98377.16
2023-03-30T11:00:48.471Z,98371.75
2023-03-30T11:03:23.655Z,98368.41
2023-03-30T11:05:58.330Z,98364.22
2023-03-30T11:08:32.453Z,98359.91
2023-03-30T11:11:05.726Z,98358.28
2023-03-30T11:13:38.487Z,98363.53
2023-03-30T11:16:14.749Z,98358.22
2023-03-30T11:18:50.076Z,98352.28
2023-03-30T11:21:24.503Z,98355.25
2023-03-30T11:23:56.914Z,98355.81
2023-03-30T11:26:38.558Z,98347.88
2023-03-30T11:29:30.356Z,98331.66
2023-03-30T11:32:14.842Z,98344.56
2023-03-30T11:34:56.445Z,98339.75
2023-03-30T11:37:32.655Z,98345.97
2023-03-30T11:40:11.441Z,98347.59
2023-03-30T11:42:43.803Z,98352.78
2023-03-30T11:45:27.072Z,98347.31
2023-03-30T11:48:15.175Z,98352.63
2023-03-30T11:51:01.273Z,98354.19
2023-03-30T11:53:36.717Z,98345.94
2023-03-30T11:56:10.208Z,98351.03
2023-03-30T11:58:48.799Z,98355.63
2023-03-30T12:01:36.589Z,98389.09
2023-03-30T12:04:11.110Z,98409.63
2023-03-30T12:06:43.502Z,98449.44
2023-03-30T12:09:26.975Z,98479.69
2023-03-30T12:12:04.119Z,98478.03
2023-03-30T12:15:01.732Z,98491.38
2023-03-30T12:17:44.106Z,98497.91
2023-03-30T12:20:37.106Z,98510.63
2023-03-30T12:23:19.849Z,98516.56
2023-03-30T12:26:05.407Z,98508.72
2023-03-30T12:31:26.551Z,98515.19
2023-03-30T12:34:11.098Z,98501.91
2023-03-30T12:36:43.245Z,98503.38
2023-03-30T12:39:21.961Z,98502.16
2023-03-30T12:41:55.906Z,98499.16
2023-03-30T12:44:48.228Z,98499.66
2023-03-30T12:47:35.897Z,98509.78
2023-03-30T12:50:30.587Z,98520.75
2023-03-30T12:53:16.406Z,98520.69
2023-03-30T12:55:50.204Z,98529.38
2023-03-30T12:58:43.770Z,98516.66
2023-03-30T13:01:23.586Z,98508.50
2023-03-30T13:03:57.966Z,98510.34
2023-03-30T13:06:31.723Z,98508.63
2023-03-30T13:09:28.097Z,98497.53
2023-03-30T13:12:41.197Z,98494.09
2023-03-30T13:15:36.476Z,98473.00
2023-03-30T13:18:26.449Z,98467.00
2023-03-30T13:21:27.531Z,98453.44
2023-03-30T13:24:07.556Z,98444.69
2023-03-30T13:26:46.603Z,98456.06
2023-03-30T13:29:18.884Z,98447.69
2023-03-30T13:32:14.992Z,98441.13
2023-03-30T13:35:06.671Z,98446.28
2023-03-30T13:38:01.600Z,98446.56
2023-03-30T13:40:41.898Z,98438.09
2023-03-30T13:43:23.096Z,98436.25
2023-03-30T13:46:15.654Z,98443.75
2023-03-30T13:48:59.818Z,98439.25
2023-03-30T13:51:31.171Z,98441.09
2023-03-30T13:54:06.584Z,98432.00
2023-03-30T13:56:39.710Z,98429.34
2023-03-30T13:59:13.841Z,98422.75
2023-03-30T14:01:44.178Z,98420.25
2023-03-30T14:04:16.544Z,98424.31
2023-03-30T14:06:50.411Z,98422.44
2023-03-30T14:09:27.779Z,98422.56
2023-03-30T14:12:01.034Z,98423.78
2023-03-30T14:14:37.559Z,98435.09
2023-03-30T14:17:17.571Z,98437.25
2023-03-30T14:20:04.987Z,98438.50
2023-03-30T14:22:41.216Z,98447.97
2023-03-30T14:25:25.865Z,98446.59
2023-03-30T14:27:56.559Z,98434.16
2023-03-30T14:30:29.679Z,98439.22
2023-03-30T14:33:10.286Z,98444.97
2023-03-30T14:35:44.772Z,98439.91
2023-03-30T14:38:18.803Z,98448.72
2023-03-30T14:40:52.060Z,98430.81
2023-03-30T14:43:24.949Z,98436.03
2023-03-30T14:45:56.813Z,98452.56
2023-03-30T14:48:30.870Z,98457.22
2023-03-30T14:51:10.512Z,98447.38
2023-03-30T14:53:40.656Z,98458.06
2023-03-30T14:56:13.808Z,98449.31
2023-03-30T14:58:44.891Z,98449.19
2023-03-30T15:01:19.373Z,98444.50
2023-03-30T15:03:51.282Z,98436.72
2023-03-30T15:06:25.615Z,98438.75
2023-03-30T15:08:56.358Z,98436.94
2023-03-30T15:11:31.411Z,98434.31
2023-03-30T15:14:04.648Z,98441.69
2023-03-30T15:16:36.531Z,98449.16
2023-03-30T15:19:09.462Z,98442.41
2023-03-30T15:21:40.182Z,98444.16
2023-03-30T15:24:15.570Z,98451.25
2023-03-30T15:26:50.648Z,98463.16
2023-03-30T15:29:22.707Z,98471.56
2023-03-30T15:32:02.264Z,98472.59
2023-03-30T15:34:32.102Z,98493.50
2023-03-30T15:37:02.297Z,98515.50
2023-03-30T15:39:36.747Z,98540.78
2023-03-30T15:42:10.100Z,98523.41
2023-03-30T15:44:41.812Z,98527.91
2023-03-30T15:47:17.499Z,98526.13
2023-03-30T15:49:51.899Z,98524.28
2023-03-30T15:52:28.017Z,98520.59
2023-03-30T15:54:58.638Z,98516.56
2023-03-30T15:57:33.650Z,98527.03
2023-03-30T16:00:06.730Z,98533.47
2023-03-30T16:02:42.390Z,98543.22
2023-03-30T16:05:22.434Z,98539.66
2023-03-30T16:07:52.430Z,98544.34
2023-03-30T16:10:24.771Z,98540.53
2023-03-30T16:12:59.060Z,98531.25
2023-03-30T16:15:31.370Z,98540.06
2023-03-30T16:18:01.422Z,98536.47
2023-03-30T16:20:33.615Z,98530.47
2023-03-30T16:23:04.604Z,98535.94
2023-03-30T16:25:44.840Z,98538.19
2023-03-30T16:28:21.299Z,98538.66
2023-03-30T16:30:52.600Z,98533.41
2023-03-30T16:33:22.765Z,98540.31
2023-03-30T16:35:52.467Z,98532.91
2023-03-30T16:38:22.300Z,98533.88
2023-03-30T16:40:55.210Z,98543.44
2023-03-30T16:43:27.889Z,98541.19
2023-03-30T16:45:57.927Z,98535.13
2023-03-30T16:48:27.948Z,98537.81
2023-03-30T16:50:59.311Z,98541.34
2023-03-30T16:53:29.266Z,98548.25
2023-03-30T16:55:58.966Z,98555.16
2023-03-30T16:58:31.429Z,98559.31
2023-03-30T17:01:04.310Z,98558.13
2023-03-30T17:03:34.558Z,98573.47
2023-03-30T17:06:04.274Z,98564.69
2023-03-30T17:08:33.992Z,98563.81
2023-03-30T17:11:07.792Z,98566.19
2023-03-30T17:13:40.290Z,98549.19
2023-03-30T17:16:11.351Z,98552.66
2023-03-30T17:18:41.188Z,98559.25
2023-03-30T17:21:16.605Z,98557.16
2023-03-30T17:23:48.116Z,98571.53
2023-03-30T17:26:18.337Z,98570.72
2023-03-30T17:28:52.354Z,98559.84
2023-03-30T17:31:23.915Z,98558.44
2023-03-30T17:33:53.669Z,98560.56
2023-03-30T17:36:25.443Z,98558.63
2023-03-30T17:38:55.598Z,98560.56
2023-03-30T17:41:25.262Z,98567.66
2023-03-30T17:43:57.523Z,98562.19
2023-03-30T17:46:27.543Z,98562.44
2023-03-30T17:48:58.952Z,98565.69
2023-03-30T17:51:28.715Z,98564.50
2023-03-30T17:53:58.420Z,98573.16
2023-03-30T17:56:28.335Z,98573.94
2023-03-30T17:59:00.660Z,98576.03
2023-03-30T18:01:30.544Z,98580.53
2023-03-30T18:04:00.375Z,98586.72
2023-03-30T18:06:30.146Z,98581.25
2023-03-30T18:08:59.892Z,98580.56
2023-03-30T18:11:29.545Z,98577.28
2023-03-30T18:14:02.255Z,98582.41
2023-03-30T18:16:31.936Z,98587.63
2023-03-30T18:19:02.456Z,98592.94
2023-03-30T18:21:32.228Z,98591.38
2023-03-30T18:24:03.614Z,98586.31
2023-03-30T18:26:34.203Z,98581.88
2023-03-30T18:29:06.678Z,98585.47
2023-03-30T18:31:36.412Z,98582.69
2023-03-30T18:34:06.242Z,98588.22
2023-03-30T18:36:35.991Z,98586.00
2023-03-30T18:39:05.801Z,98597.59
2023-03-30T18:41:35.458Z,98606.19
2023-03-30T18:44:09.130Z,98611.34
2023-03-30T18:46:39.279Z,98612.41
2023-03-30T18:49:12.441Z,98621.81
2023-03-30T18:51:42.097Z,98620.66
2023-03-30T18:54:11.837Z,98628.38
2023-03-30T18:56:41.511Z,98632.69
2023-03-30T18:59:14.791Z,98635.03
2023-03-30T19:01:46.178Z,98628.75
2023-03-30T19:04:16.129Z,98625.13
2023-03-30T19:06:46.513Z,98629.78
2023-03-30T19:09:16.602Z,98629.59
2023-03-30T19:11:46.401Z,98634.53
2023-03-30T19:14:18.682Z,98642.97
2023-03-30T19:16:48.540Z,98644.06
2023-03-30T19:19:18.372Z,98649.03
2023-03-30T19:21:48.217Z,98661.31
2023-03-30T19:24:18.158Z,98656.53
2023-03-30T19:26:47.822Z,98655.63
2023-03-30T19:29:20.042Z,98653.72
2023-03-30T19:31:50.362Z,98647.22
2023-03-30T19:34:20.199Z,98644.41
2023-03-30T19:36:49.880Z,98643.84
2023-03-30T19:39:19.623Z,98648.72
2023-03-30T19:41:49.297Z,98641.84
2023-03-30T19:44:22.258Z,98643.44
2023-03-30T19:46:52.088Z,98647.38
2023-03-30T19:49:21.800Z,98647.41
2023-03-30T19:51:51.541Z,98653.00
2023-03-30T19:54:21.308Z,98646.50
2023-03-30T19:56:51.250Z,98643.47
2023-03-30T19:59:23.606Z,98646.38
2023-03-30T20:01:53.392Z,98640.50
2023-03-30T20:04:23.289Z,98635.53
2023-03-30T20:06:52.989Z,98636.31
2023-03-30T20:09:22.880Z,98632.81
2023-03-30T20:11:52.524Z,98639.41
2023-03-30T20:14:24.931Z,98636.25
2023-03-30T20:16:56.105Z,98637.75
2023-03-30T20:19:29.631Z,98633.34
2023-03-30T20:22:00.520Z,98628.03
2023-03-30T20:24:30.179Z,98627.75
2023-03-30T20:27:00.266Z,98631.28
2023-03-30T20:29:32.925Z,98625.22
2023-03-30T20:32:02.656Z,98629.25
2023-03-30T20:34:33.736Z,98630.72
2023-03-30T20:37:03.562Z,98633.66
2023-03-30T20:39:34.370Z,98628.75
2023-03-30T20:42:08.430Z,98633.16
2023-03-30T20:44:41.232Z,98634.31
2023-03-30T20:47:11.241Z,98641.06
2023-03-30T20:49:43.811Z,98640.97
2023-03-30T20:52:13.628Z,98629.94
2023-03-30T20:54:44.572Z,98636.97
2023-03-30T20:57:14.401Z,98624.13
2023-03-30T20:59:48.167Z,98620.81
2023-03-30T21:02:18.443Z,98618.69
2023-03-30T21:04:48.183Z,98616.44
2023-03-30T21:07:18.332Z,98620.03
2023-03-30T21:09:48.457Z,98611.97
2023-03-30T21:12:18.205Z,98611.56
2023-03-30T21:14:50.813Z,98603.53
2023-03-30T21:17:20.584Z,98608.78
2023-03-30T21:19:50.223Z,98602.19
2023-03-30T21:22:21.563Z,98596.88
2023-03-30T21:24:51.384Z,98597.88
2023-03-30T21:27:21.049Z,98592.97
2023-03-30T21:29:53.584Z,98590.94
2023-03-30T21:32:23.293Z,98586.06
2023-03-30T21:34:52.992Z,98593.44
2023-03-30T21:37:22.748Z,98589.75
2023-03-30T21:39:52.401Z,98591.56
2023-03-30T21:42:22.196Z,98604.22
2023-03-30T21:44:54.566Z,98592.00
2023-03-30T21:47:24.281Z,98587.88
2023-03-30T21:49:53.961Z,98586.34
2023-03-30T21:52:24.177Z,98596.63
2023-03-30T21:54:54.241Z,98580.53
2023-03-30T21:57:24.577Z,98585.47
2023-03-30T21:59:56.849Z,98579.56
2023-03-30T22:02:27.283Z,98577.19
2023-03-30T22:04:57.234Z,98582.31
2023-03-30T22:07:26.945Z,98574.75
2023-03-30T22:09:59.838Z,98572.69
2023-03-30T22:12:31.609Z,98573.34
2023-03-30T22:15:03.905Z,98567.50
2023-03-30T22:17:41.902Z,98567.66
2023-03-30T22:20:13.180Z,98566.16
2023-03-30T22:22:43.064Z,98565.13
2023-03-30T22:25:13.177Z,98559.25
2023-03-30T22:27:44.799Z,98554.16
2023-03-30T22:30:17.998Z,98551.63
2023-03-30T22:32:47.751Z,98544.31
2023-03-30T22:35:17.472Z,98538.84
2023-03-30T22:37:47.392Z,98540.44
2023-03-30T22:40:17.307Z,98546.06
2023-03-30T22:42:47.075Z,98544.44
2023-03-30T22:45:19.629Z,98543.50
2023-03-30T22:47:49.358Z,98539.75
2023-03-30T22:50:20.558Z,98540.38
2023-03-30T22:52:50.346Z,98540.25
2023-03-30T22:55:20.763Z,98527.47
2023-03-30T22:57:50.723Z,98531.06
2023-03-30T23:00:23.766Z,98525.00
2023-03-30T23:02:53.955Z,98529.06
2023-03-30T23:05:25.730Z,98519.66
2023-03-30T23:07:55.385Z,98525.25
2023-03-30T23:10:26.533Z,98527.38
2023-03-30T23:12:57.980Z,98524.19
2023-03-30T23:15:30.354Z,98515.84
2023-03-30T23:18:00.015Z,98511.97
2023-03-30T23:20:29.931Z,98502.56
2023-03-30T23:22:59.600Z,98505.69
2023-03-30T23:25:29.309Z,98501.47
2023-03-30T23:27:59.208Z,98498.19
2023-03-30T23:30:31.534Z,98501.00
2023-03-30T23:33:01.989Z,98498.31
2023-03-30T23:35:31.778Z,98493.28
2023-03-30T23:38:03.367Z,98496.63
2023-03-30T23:40:33.157Z,98496.00
2023-03-30T23:43:02.861Z,98494.84
2023-03-30T23:45:35.312Z,98494.53
2023-03-30T23:48:05.118Z,98494.41
2023-03-30T23:50:35.282Z,98490.22
2023-03-30T23:53:04.983Z,98486.25
2023-03-30T23:55:34.726Z,98481.00
2023-03-30T23:58:04.384Z,98483.47
